Terminal Aerodrome Forecast
Issued by NWS Kansas City/Pleasant Hill, MO

Home | Current Version | Previous Version | Text Only | Print | Product List | Glossary On
Versions: 1 2 3 4 5 6 7 8 9 10 11 12 13 14 15
963
FTUS43 KEAX 232320
TAFMCI
TAF
KMCI 232320Z 2400/2424 03011KT P6SM SCT200
     FM240500 25008KT P6SM BKN035
     FM240600 31013KT P6SM BKN010
     FM242100 31019KT P6SM OVC020=

USA.gov is the U.S. government's official web portal to all federal, state and local government web resources and services.